sensor_id;sensor_type;location;lat;lon;timestamp;P1;durP1;ratioP1;P2;durP2;ratioP2
59926;SDS011;45784;55.156;73.270;2022-07-18T00:01:58;11.15;;;7.53;;
59926;SDS011;45784;55.156;73.270;2022-07-18T00:04:26;8.23;;;6.80;;
59926;SDS011;45784;55.156;73.270;2022-07-18T00:06:53;7.15;;;6.45;;
59926;SDS011;45784;55.156;73.270;2022-07-18T00:09:21;7.55;;;6.85;;
59926;SDS011;45784;55.156;73.270;2022-07-18T00:11:50;7.28;;;6.22;;
59926;SDS011;45784;55.156;73.270;2022-07-18T00:14:18;9.60;;;7.32;;
59926;SDS011;45784;55.156;73.270;2022-07-18T00:16:46;9.68;;;8.13;;
59926;SDS011;45784;55.156;73.270;2022-07-18T00:19:14;8.20;;;7.38;;
59926;SDS011;45784;55.156;73.270;2022-07-18T00:21:40;10.20;;;7.93;;
59926;SDS011;45784;55.156;73.270;2022-07-18T00:24:07;9.60;;;8.00;;
59926;SDS011;45784;55.156;73.270;2022-07-18T00:26:34;11.68;;;8.35;;
59926;SDS011;45784;55.156;73.270;2022-07-18T00:29:01;11.07;;;8.15;;
59926;SDS011;45784;55.156;73.270;2022-07-18T00:31:28;11.50;;;8.38;;
59926;SDS011;45784;55.156;73.270;2022-07-18T00:33:55;12.93;;;8.50;;
59926;SDS011;45784;55.156;73.270;2022-07-18T00:36:22;17.65;;;8.63;;
59926;SDS011;45784;55.156;73.270;2022-07-18T00:38:49;10.75;;;8.48;;
59926;SDS011;45784;55.156;73.270;2022-07-18T00:41:16;12.40;;;9.02;;
59926;SDS011;45784;55.156;73.270;2022-07-18T00:43:43;10.88;;;8.23;;
59926;SDS011;45784;55.156;73.270;2022-07-18T00:46:10;20.38;;;8.18;;
59926;SDS011;45784;55.156;73.270;2022-07-18T00:48:40;11.88;;;7.90;;
59926;SDS011;45784;55.156;73.270;2022-07-18T00:51:08;10.57;;;8.05;;
59926;SDS011;45784;55.156;73.270;2022-07-18T00:53:36;11.13;;;7.93;;
59926;SDS011;45784;55.156;73.270;2022-07-18T00:56:03;16.15;;;9.13;;
59926;SDS011;45784;55.156;73.270;2022-07-18T00:58:31;11.00;;;8.50;;
59926;SDS011;45784;55.156;73.270;2022-07-18T01:00:58;12.35;;;7.97;;
59926;SDS011;45784;55.156;73.270;2022-07-18T01:03:44;15.95;;;8.63;;
59926;SDS011;45784;55.156;73.270;2022-07-18T01:06:11;10.45;;;8.32;;
59926;SDS011;45784;55.156;73.270;2022-07-18T01:08:38;15.68;;;8.40;;
59926;SDS011;45784;55.156;73.270;2022-07-18T01:11:09;10.82;;;8.32;;
59926;SDS011;45784;55.156;73.270;2022-07-18T01:13:37;15.93;;;8.25;;
59926;SDS011;45784;55.156;73.270;2022-07-18T01:16:04;12.68;;;7.60;;
59926;SDS011;45784;55.156;73.270;2022-07-18T01:18:32;15.00;;;8.30;;
59926;SDS011;45784;55.156;73.270;2022-07-18T01:20:59;20.73;;;7.80;;
59926;SDS011;45784;55.156;73.270;2022-07-18T01:23:26;13.60;;;7.68;;
59926;SDS011;45784;55.156;73.270;2022-07-18T01:25:53;11.23;;;7.22;;
59926;SDS011;45784;55.156;73.270;2022-07-18T01:28:19;8.07;;;6.70;;
59926;SDS011;45784;55.156;73.270;2022-07-18T01:30:46;14.15;;;6.82;;
59926;SDS011;45784;55.156;73.270;2022-07-18T01:33:13;13.55;;;6.90;;
59926;SDS011;45784;55.156;73.270;2022-07-18T01:35:40;8.82;;;6.45;;
59926;SDS011;45784;55.156;73.270;2022-07-18T01:38:06;7.65;;;6.22;;
59926;SDS011;45784;55.156;73.270;2022-07-18T01:40:33;11.00;;;6.07;;
59926;SDS011;45784;55.156;73.270;2022-07-18T01:43:00;7.30;;;5.80;;
59926;SDS011;45784;55.156;73.270;2022-07-18T01:45:45;13.52;;;6.10;;
59926;SDS011;45784;55.156;73.270;2022-07-18T01:48:12;10.10;;;5.65;;
59926;SDS011;45784;55.156;73.270;2022-07-18T01:50:39;6.07;;;5.47;;
59926;SDS011;45784;55.156;73.270;2022-07-18T01:53:06;6.60;;;5.70;;
59926;SDS011;45784;55.156;73.270;2022-07-18T01:55:33;12.25;;;5.45;;
59926;SDS011;45784;55.156;73.270;2022-07-18T01:58:00;10.50;;;5.90;;
59926;SDS011;45784;55.156;73.270;2022-07-18T02:00:27;6.13;;;5.00;;
59926;SDS011;45784;55.156;73.270;2022-07-18T02:02:54;7.93;;;5.43;;
59926;SDS011;45784;55.156;73.270;2022-07-18T02:05:20;12.05;;;4.88;;
59926;SDS011;45784;55.156;73.270;2022-07-18T02:07:47;9.18;;;5.88;;
59926;SDS011;45784;55.156;73.270;2022-07-18T02:10:15;9.10;;;4.90;;
59926;SDS011;45784;55.156;73.270;2022-07-18T02:12:44;15.80;;;4.88;;
59926;SDS011;45784;55.156;73.270;2022-07-18T02:15:13;5.60;;;4.28;;
59926;SDS011;45784;55.156;73.270;2022-07-18T02:17:41;11.45;;;4.65;;
59926;SDS011;45784;55.156;73.270;2022-07-18T02:20:11;4.15;;;3.70;;
59926;SDS011;45784;55.156;73.270;2022-07-18T02:22:39;5.82;;;4.43;;
59926;SDS011;45784;55.156;73.270;2022-07-18T02:25:06;7.32;;;4.45;;
59926;SDS011;45784;55.156;73.270;2022-07-18T02:27:34;12.40;;;4.03;;
59926;SDS011;45784;55.156;73.270;2022-07-18T02:30:00;10.63;;;3.88;;
59926;SDS011;45784;55.156;73.270;2022-07-18T02:32:27;7.53;;;3.67;;
59926;SDS011;45784;55.156;73.270;2022-07-18T02:34:54;10.30;;;4.68;;
59926;SDS011;45784;55.156;73.270;2022-07-18T02:37:21;4.68;;;3.78;;
59926;SDS011;45784;55.156;73.270;2022-07-18T02:39:48;12.10;;;3.95;;
59926;SDS011;45784;55.156;73.270;2022-07-18T02:42:14;7.18;;;3.38;;
59926;SDS011;45784;55.156;73.270;2022-07-18T02:44:41;7.15;;;3.35;;
59926;SDS011;45784;55.156;73.270;2022-07-18T02:47:08;8.30;;;3.17;;
59926;SDS011;45784;55.156;73.270;2022-07-18T02:49:35;4.72;;;3.20;;
59926;SDS011;45784;55.156;73.270;2022-07-18T02:52:04;4.78;;;3.08;;
59926;SDS011;45784;55.156;73.270;2022-07-18T02:54:35;9.93;;;3.33;;
59926;SDS011;45784;55.156;73.270;2022-07-18T02:57:03;3.80;;;3.15;;
59926;SDS011;45784;55.156;73.270;2022-07-18T02:59:30;7.85;;;2.95;;
59926;SDS011;45784;55.156;73.270;2022-07-18T03:01:57;6.00;;;3.13;;
59926;SDS011;45784;55.156;73.270;2022-07-18T03:04:24;4.15;;;2.53;;
59926;SDS011;45784;55.156;73.270;2022-07-18T03:06:51;4.82;;;3.05;;
59926;SDS011;45784;55.156;73.270;2022-07-18T03:09:18;8.52;;;2.58;;
59926;SDS011;45784;55.156;73.270;2022-07-18T03:11:45;14.40;;;3.45;;
59926;SDS011;45784;55.156;73.270;2022-07-18T03:14:12;2.78;;;2.40;;
59926;SDS011;45784;55.156;73.270;2022-07-18T03:16:39;4.07;;;2.30;;
59926;SDS011;45784;55.156;73.270;2022-07-18T03:19:06;3.03;;;2.20;;
59926;SDS011;45784;55.156;73.270;2022-07-18T03:21:33;4.78;;;1.90;;
59926;SDS011;45784;55.156;73.270;2022-07-18T03:24:00;11.43;;;2.28;;
59926;SDS011;45784;55.156;73.270;2022-07-18T03:26:27;3.03;;;1.85;;
59926;SDS011;45784;55.156;73.270;2022-07-18T03:28:54;5.18;;;2.05;;
59926;SDS011;45784;55.156;73.270;2022-07-18T03:31:21;3.60;;;1.92;;
59926;SDS011;45784;55.156;73.270;2022-07-18T03:33:48;3.33;;;2.00;;
59926;SDS011;45784;55.156;73.270;2022-07-18T03:36:15;2.70;;;1.75;;
59926;SDS011;45784;55.156;73.270;2022-07-18T03:38:42;10.20;;;2.13;;
59926;SDS011;45784;55.156;73.270;2022-07-18T03:41:09;4.40;;;1.60;;
59926;SDS011;45784;55.156;73.270;2022-07-18T03:43:38;3.42;;;1.60;;
59926;SDS011;45784;55.156;73.270;2022-07-18T03:46:06;9.95;;;1.73;;
59926;SDS011;45784;55.156;73.270;2022-07-18T03:48:33;1.98;;;1.38;;
59926;SDS011;45784;55.156;73.270;2022-07-18T03:51:01;5.90;;;1.80;;
59926;SDS011;45784;55.156;73.270;2022-07-18T03:53:29;3.30;;;1.80;;
59926;SDS011;45784;55.156;73.270;2022-07-18T03:55:57;2.35;;;1.55;;
59926;SDS011;45784;55.156;73.270;2022-07-18T03:58:25;7.10;;;1.80;;
59926;SDS011;45784;55.156;73.270;2022-07-18T04:00:51;10.35;;;1.50;;
59926;SDS011;45784;55.156;73.270;2022-07-18T04:03:18;3.22;;;1.27;;
59926;SDS011;45784;55.156;73.270;2022-07-18T04:05:45;5.50;;;1.30;;
59926;SDS011;45784;55.156;73.270;2022-07-18T04:08:13;4.28;;;1.10;;
59926;SDS011;45784;55.156;73.270;2022-07-18T04:10:40;5.18;;;1.23;;
59926;SDS011;45784;55.156;73.270;2022-07-18T04:13:07;2.55;;;1.08;;
59926;SDS011;45784;55.156;73.270;2022-07-18T04:15:35;4.47;;;1.33;;
59926;SDS011;45784;55.156;73.270;2022-07-18T04:18:03;5.32;;;1.15;;
59926;SDS011;45784;55.156;73.270;2022-07-18T04:20:31;8.73;;;1.25;;
59926;SDS011;45784;55.156;73.270;2022-07-18T04:23:00;6.88;;;1.13;;
59926;SDS011;45784;55.156;73.270;2022-07-18T04:25:33;1.20;;;1.10;;
59926;SDS011;45784;55.156;73.270;2022-07-18T04:28:02;1.35;;;1.02;;
59926;SDS011;45784;55.156;73.270;2022-07-18T04:30:29;3.70;;;1.00;;
59926;SDS011;45784;55.156;73.270;2022-07-18T04:32:57;6.50;;;1.13;;
59926;SDS011;45784;55.156;73.270;2022-07-18T04:35:24;21.17;;;1.20;;
59926;SDS011;45784;55.156;73.270;2022-07-18T04:37:51;5.03;;;0.98;;
59926;SDS011;45784;55.156;73.270;2022-07-18T04:40:18;2.65;;;0.90;;
59926;SDS011;45784;55.156;73.270;2022-07-18T04:42:45;25.10;;;1.25;;
59926;SDS011;45784;55.156;73.270;2022-07-18T04:45:12;11.52;;;1.02;;
59926;SDS011;45784;55.156;73.270;2022-07-18T04:47:41;17.23;;;1.27;;
59926;SDS011;45784;55.156;73.270;2022-07-18T04:50:08;4.65;;;1.00;;
59926;SDS011;45784;55.156;73.270;2022-07-18T04:52:36;2.40;;;0.80;;
59926;SDS011;45784;55.156;73.270;2022-07-18T04:55:04;4.88;;;1.17;;
59926;SDS011;45784;55.156;73.270;2022-07-18T04:57:32;4.63;;;1.17;;
59926;SDS011;45784;55.156;73.270;2022-07-18T04:59:59;8.43;;;0.82;;
59926;SDS011;45784;55.156;73.270;2022-07-18T05:02:26;1.30;;;0.90;;
59926;SDS011;45784;55.156;73.270;2022-07-18T05:04:53;4.00;;;0.90;;
59926;SDS011;45784;55.156;73.270;2022-07-18T05:07:19;6.00;;;1.10;;
59926;SDS011;45784;55.156;73.270;2022-07-18T05:09:46;4.78;;;1.17;;
59926;SDS011;45784;55.156;73.270;2022-07-18T05:12:13;2.33;;;0.70;;
59926;SDS011;45784;55.156;73.270;2022-07-18T05:14:40;1.38;;;0.90;;
59926;SDS011;45784;55.156;73.270;2022-07-18T05:17:07;4.32;;;0.88;;
59926;SDS011;45784;55.156;73.270;2022-07-18T05:19:34;2.42;;;1.63;;
59926;SDS011;45784;55.156;73.270;2022-07-18T05:22:01;5.25;;;1.00;;
59926;SDS011;45784;55.156;73.270;2022-07-18T05:24:28;2.05;;;0.68;;
59926;SDS011;45784;55.156;73.270;2022-07-18T05:26:54;17.40;;;13.63;;
59926;SDS011;45784;55.156;73.270;2022-07-18T05:29:21;3.03;;;0.90;;
59926;SDS011;45784;55.156;73.270;2022-07-18T05:31:48;4.88;;;0.77;;
59926;SDS011;45784;55.156;73.270;2022-07-18T05:34:15;3.97;;;0.82;;
59926;SDS011;45784;55.156;73.270;2022-07-18T05:36:42;7.25;;;0.70;;
59926;SDS011;45784;55.156;73.270;2022-07-18T05:39:09;4.35;;;0.80;;
59926;SDS011;45784;55.156;73.270;2022-07-18T05:41:36;3.70;;;0.70;;
59926;SDS011;45784;55.156;73.270;2022-07-18T05:44:03;4.90;;;0.60;;
59926;SDS011;45784;55.156;73.270;2022-07-18T05:46:30;4.10;;;0.73;;
59926;SDS011;45784;55.156;73.270;2022-07-18T05:48:57;1.58;;;0.60;;
59926;SDS011;45784;55.156;73.270;2022-07-18T05:51:24;3.30;;;0.50;;
59926;SDS011;45784;55.156;73.270;2022-07-18T05:53:50;1.30;;;0.60;;
59926;SDS011;45784;55.156;73.270;2022-07-18T05:56:17;4.47;;;0.70;;
59926;SDS011;45784;55.156;73.270;2022-07-18T05:58:44;6.88;;;0.60;;
59926;SDS011;45784;55.156;73.270;2022-07-18T06:01:11;5.25;;;0.73;;
59926;SDS011;45784;55.156;73.270;2022-07-18T06:03:43;10.32;;;7.35;;
59926;SDS011;45784;55.156;73.270;2022-07-18T06:06:10;51.35;;;38.58;;
59926;SDS011;45784;55.156;73.270;2022-07-18T06:08:36;8.70;;;4.07;;
59926;SDS011;45784;55.156;73.270;2022-07-18T06:11:04;1.05;;;0.70;;
59926;SDS011;45784;55.156;73.270;2022-07-18T06:13:33;0.50;;;0.50;;
59926;SDS011;45784;55.156;73.270;2022-07-18T06:16:01;10.35;;;0.68;;
59926;SDS011;45784;55.156;73.270;2022-07-18T06:18:28;3.70;;;0.57;;
59926;SDS011;45784;55.156;73.270;2022-07-18T06:20:55;2.67;;;0.80;;
59926;SDS011;45784;55.156;73.270;2022-07-18T06:23:21;1.23;;;0.57;;
59926;SDS011;45784;55.156;73.270;2022-07-18T06:25:49;8.40;;;0.70;;
59926;SDS011;45784;55.156;73.270;2022-07-18T06:28:15;4.20;;;0.50;;
59926;SDS011;45784;55.156;73.270;2022-07-18T06:30:42;8.57;;;0.70;;
59926;SDS011;45784;55.156;73.270;2022-07-18T06:33:09;2.92;;;0.60;;
59926;SDS011;45784;55.156;73.270;2022-07-18T06:35:36;10.68;;;0.77;;
59926;SDS011;45784;55.156;73.270;2022-07-18T06:38:03;9.48;;;0.60;;
59926;SDS011;45784;55.156;73.270;2022-07-18T06:40:31;3.33;;;0.60;;
59926;SDS011;45784;55.156;73.270;2022-07-18T06:42:58;1.45;;;0.50;;
59926;SDS011;45784;55.156;73.270;2022-07-18T06:45:25;13.55;;;0.80;;
59926;SDS011;45784;55.156;73.270;2022-07-18T06:47:52;3.75;;;0.80;;
59926;SDS011;45784;55.156;73.270;2022-07-18T06:50:19;4.45;;;0.77;;
59926;SDS011;45784;55.156;73.270;2022-07-18T06:52:45;1.45;;;0.70;;
59926;SDS011;45784;55.156;73.270;2022-07-18T06:55:13;9.57;;;0.90;;
59926;SDS011;45784;55.156;73.270;2022-07-18T06:57:40;17.92;;;1.25;;
59926;SDS011;45784;55.156;73.270;2022-07-18T07:00:09;4.13;;;1.13;;
59926;SDS011;45784;55.156;73.270;2022-07-18T07:02:41;10.48;;;3.15;;
59926;SDS011;45784;55.156;73.270;2022-07-18T07:05:12;6.25;;;0.70;;
59926;SDS011;45784;55.156;73.270;2022-07-18T07:07:41;6.00;;;1.20;;
59926;SDS011;45784;55.156;73.270;2022-07-18T07:10:08;3.25;;;0.70;;
59926;SDS011;45784;55.156;73.270;2022-07-18T07:12:54;4.40;;;0.88;;
59926;SDS011;45784;55.156;73.270;2022-07-18T07:15:21;7.32;;;0.90;;
59926;SDS011;45784;55.156;73.270;2022-07-18T07:17:50;7.43;;;1.40;;
59926;SDS011;45784;55.156;73.270;2022-07-18T07:20:17;11.43;;;1.20;;
59926;SDS011;45784;55.156;73.270;2022-07-18T07:22:48;5.93;;;0.90;;
59926;SDS011;45784;55.156;73.270;2022-07-18T07:25:17;4.00;;;0.90;;
59926;SDS011;45784;55.156;73.270;2022-07-18T07:27:45;14.98;;;0.93;;
59926;SDS011;45784;55.156;73.270;2022-07-18T07:30:12;8.52;;;1.00;;
59926;SDS011;45784;55.156;73.270;2022-07-18T07:32:41;13.30;;;1.15;;
59926;SDS011;45784;55.156;73.270;2022-07-18T07:35:09;17.70;;;1.90;;
59926;SDS011;45784;55.156;73.270;2022-07-18T07:37:38;1.25;;;0.85;;
59926;SDS011;45784;55.156;73.270;2022-07-18T07:40:06;24.00;;;6.80;;
59926;SDS011;45784;55.156;73.270;2022-07-18T07:42:34;87.45;;;26.48;;
59926;SDS011;45784;55.156;73.270;2022-07-18T07:45:01;2.38;;;1.35;;
59926;SDS011;45784;55.156;73.270;2022-07-18T07:47:28;11.55;;;1.00;;
59926;SDS011;45784;55.156;73.270;2022-07-18T07:49:55;11.88;;;0.98;;
59926;SDS011;45784;55.156;73.270;2022-07-18T07:52:22;3.88;;;0.70;;
59926;SDS011;45784;55.156;73.270;2022-07-18T07:54:50;4.95;;;2.97;;
59926;SDS011;45784;55.156;73.270;2022-07-18T07:57:17;6.10;;;0.90;;
59926;SDS011;45784;55.156;73.270;2022-07-18T07:59:44;2.92;;;0.50;;
59926;SDS011;45784;55.156;73.270;2022-07-18T08:02:11;4.90;;;0.75;;
59926;SDS011;45784;55.156;73.270;2022-07-18T08:04:38;8.07;;;0.90;;
59926;SDS011;45784;55.156;73.270;2022-07-18T08:07:05;4.72;;;0.63;;
59926;SDS011;45784;55.156;73.270;2022-07-18T08:09:32;1.73;;;0.70;;
59926;SDS011;45784;55.156;73.270;2022-07-18T08:11:59;2.90;;;1.00;;
59926;SDS011;45784;55.156;73.270;2022-07-18T08:14:26;8.25;;;0.70;;
59926;SDS011;45784;55.156;73.270;2022-07-18T08:16:53;20.08;;;1.00;;
59926;SDS011;45784;55.156;73.270;2022-07-18T08:19:20;3.50;;;0.70;;
59926;SDS011;45784;55.156;73.270;2022-07-18T08:21:46;2.50;;;0.70;;
59926;SDS011;45784;55.156;73.270;2022-07-18T08:24:13;0.95;;;0.85;;
59926;SDS011;45784;55.156;73.270;2022-07-18T08:26:40;5.70;;;0.90;;
59926;SDS011;45784;55.156;73.270;2022-07-18T08:29:07;5.88;;;1.00;;
59926;SDS011;45784;55.156;73.270;2022-07-18T08:31:34;5.00;;;0.80;;
59926;SDS011;45784;55.156;73.270;2022-07-18T08:34:02;4.40;;;0.63;;
59926;SDS011;45784;55.156;73.270;2022-07-18T08:36:29;4.32;;;0.88;;
59926;SDS011;45784;55.156;73.270;2022-07-18T08:38:56;3.30;;;0.80;;
59926;SDS011;45784;55.156;73.270;2022-07-18T08:41:23;2.22;;;0.77;;
59926;SDS011;45784;55.156;73.270;2022-07-18T08:43:50;1.80;;;0.80;;
59926;SDS011;45784;55.156;73.270;2022-07-18T08:46:21;1.48;;;0.80;;
59926;SDS011;45784;55.156;73.270;2022-07-18T08:48:48;4.03;;;0.60;;
59926;SDS011;45784;55.156;73.270;2022-07-18T08:51:15;3.95;;;0.90;;
59926;SDS011;45784;55.156;73.270;2022-07-18T08:53:42;1.83;;;0.90;;
59926;SDS011;45784;55.156;73.270;2022-07-18T08:56:12;2.75;;;0.77;;
59926;SDS011;45784;55.156;73.270;2022-07-18T08:58:39;21.50;;;1.30;;
59926;SDS011;45784;55.156;73.270;2022-07-18T09:01:06;3.53;;;0.98;;
59926;SDS011;45784;55.156;73.270;2022-07-18T09:03:33;2.17;;;0.70;;
59926;SDS011;45784;55.156;73.270;2022-07-18T09:08:33;3.58;;;0.80;;
59926;SDS011;45784;55.156;73.270;2022-07-18T09:11:03;2.53;;;0.63;;
59926;SDS011;45784;55.156;73.270;2022-07-18T09:16:02;5.55;;;0.82;;
59926;SDS011;45784;55.156;73.270;2022-07-18T09:18:30;4.10;;;0.60;;
59926;SDS011;45784;55.156;73.270;2022-07-18T09:21:03;7.55;;;0.65;;
59926;SDS011;45784;55.156;73.270;2022-07-18T09:23:38;3.05;;;0.80;;
59926;SDS011;45784;55.156;73.270;2022-07-18T09:26:08;1.73;;;0.63;;
59926;SDS011;45784;55.156;73.270;2022-07-18T09:28:46;5.38;;;0.70;;
59926;SDS011;45784;55.156;73.270;2022-07-18T09:31:19;5.53;;;0.60;;
59926;SDS011;45784;55.156;73.270;2022-07-18T09:33:54;3.03;;;0.80;;
59926;SDS011;45784;55.156;73.270;2022-07-18T09:36:23;2.15;;;0.70;;
59926;SDS011;45784;55.156;73.270;2022-07-18T09:38:50;2.25;;;0.70;;
59926;SDS011;45784;55.156;73.270;2022-07-18T09:41:22;2.42;;;0.60;;
59926;SDS011;45784;55.156;73.270;2022-07-18T09:43:49;1.23;;;0.70;;
59926;SDS011;45784;55.156;73.270;2022-07-18T09:46:16;11.18;;;0.70;;
59926;SDS011;45784;55.156;73.270;2022-07-18T09:48:43;4.78;;;0.60;;
59926;SDS011;45784;55.156;73.270;2022-07-18T09:51:10;3.65;;;0.82;;
59926;SDS011;45784;55.156;73.270;2022-07-18T09:53:40;3.58;;;0.80;;
59926;SDS011;45784;55.156;73.270;2022-07-18T09:56:09;2.10;;;0.50;;
59926;SDS011;45784;55.156;73.270;2022-07-18T09:58:40;3.63;;;0.60;;
59926;SDS011;45784;55.156;73.270;2022-07-18T10:01:15;2.20;;;0.70;;
59926;SDS011;45784;55.156;73.270;2022-07-18T10:03:43;1.63;;;0.75;;
59926;SDS011;45784;55.156;73.270;2022-07-18T10:06:10;0.70;;;0.65;;
59926;SDS011;45784;55.156;73.270;2022-07-18T10:08:37;7.45;;;0.90;;
59926;SDS011;45784;55.156;73.270;2022-07-18T10:11:05;1.35;;;0.60;;
59926;SDS011;45784;55.156;73.270;2022-07-18T10:13:34;4.47;;;0.60;;
59926;SDS011;45784;55.156;73.270;2022-07-18T10:16:02;11.95;;;0.73;;
59926;SDS011;45784;55.156;73.270;2022-07-18T10:18:31;6.00;;;0.98;;
59926;SDS011;45784;55.156;73.270;2022-07-18T10:23:30;5.30;;;0.60;;
59926;SDS011;45784;55.156;73.270;2022-07-18T10:31:35;7.43;;;0.63;;
59926;SDS011;45784;55.156;73.270;2022-07-18T10:36:34;6.82;;;0.70;;
59926;SDS011;45784;55.156;73.270;2022-07-18T10:39:06;1.25;;;0.65;;
59926;SDS011;45784;55.156;73.270;2022-07-18T11:00:11;7.25;;;0.70;;
59926;SDS011;45784;55.156;73.270;2022-07-18T11:15:54;6.30;;;0.70;;
59926;SDS011;45784;55.156;73.270;2022-07-18T11:18:25;2.20;;;0.70;;
59926;SDS011;45784;55.156;73.270;2022-07-18T11:20:52;3.92;;;0.70;;
59926;SDS011;45784;55.156;73.270;2022-07-18T11:23:20;5.60;;;0.90;;
59926;SDS011;45784;55.156;73.270;2022-07-18T11:25:52;1.75;;;0.90;;
59926;SDS011;45784;55.156;73.270;2022-07-18T11:28:22;3.60;;;0.80;;
59926;SDS011;45784;55.156;73.270;2022-07-18T11:31:03;55.65;;;3.33;;
59926;SDS011;45784;55.156;73.270;2022-07-18T11:33:33;10.07;;;1.02;;
59926;SDS011;45784;55.156;73.270;2022-07-18T11:36:02;1.15;;;0.63;;
59926;SDS011;45784;55.156;73.270;2022-07-18T11:38:34;2.17;;;0.90;;
59926;SDS011;45784;55.156;73.270;2022-07-18T11:41:02;10.07;;;1.17;;
59926;SDS011;45784;55.156;73.270;2022-07-18T11:43:30;5.57;;;0.80;;
59926;SDS011;45784;55.156;73.270;2022-07-18T11:46:00;7.45;;;1.00;;
59926;SDS011;45784;55.156;73.270;2022-07-18T11:48:33;3.03;;;0.90;;
59926;SDS011;45784;55.156;73.270;2022-07-18T11:51:01;2.65;;;0.70;;
59926;SDS011;45784;55.156;73.270;2022-07-18T11:53:34;1.02;;;0.70;;
59926;SDS011;45784;55.156;73.270;2022-07-18T11:56:04;3.65;;;0.80;;
59926;SDS011;45784;55.156;73.270;2022-07-18T11:58:35;8.60;;;0.80;;
59926;SDS011;45784;55.156;73.270;2022-07-18T12:01:04;2.22;;;0.70;;
59926;SDS011;45784;55.156;73.270;2022-07-18T12:03:34;7.97;;;0.80;;
59926;SDS011;45784;55.156;73.270;2022-07-18T12:06:21;11.20;;;0.80;;
59926;SDS011;45784;55.156;73.270;2022-07-18T12:08:53;1.13;;;0.60;;
59926;SDS011;45784;55.156;73.270;2022-07-18T12:19:19;1.70;;;0.82;;
59926;SDS011;45784;55.156;73.270;2022-07-18T12:21:55;4.93;;;0.70;;
59926;SDS011;45784;55.156;73.270;2022-07-18T12:32:41;8.52;;;1.00;;
59926;SDS011;45784;55.156;73.270;2022-07-18T12:35:22;10.55;;;1.60;;
59926;SDS011;45784;55.156;73.270;2022-07-18T12:38:01;8.87;;;1.03;;
59926;SDS011;45784;55.156;73.270;2022-07-18T12:43:25;32.28;;;2.00;;
59926;SDS011;45784;55.156;73.270;2022-07-18T12:46:00;6.95;;;0.90;;
59926;SDS011;45784;55.156;73.270;2022-07-18T12:48:30;4.03;;;0.90;;
59926;SDS011;45784;55.156;73.270;2022-07-18T12:53:36;1.70;;;0.82;;
59926;SDS011;45784;55.156;73.270;2022-07-18T12:56:04;2.47;;;0.80;;
59926;SDS011;45784;55.156;73.270;2022-07-18T12:58:31;7.03;;;1.02;;
59926;SDS011;45784;55.156;73.270;2022-07-18T13:00:58;3.72;;;0.70;;
59926;SDS011;45784;55.156;73.270;2022-07-18T13:03:26;3.75;;;1.00;;
59926;SDS011;45784;55.156;73.270;2022-07-18T13:05:53;1.17;;;0.80;;
59926;SDS011;45784;55.156;73.270;2022-07-18T13:08:20;2.40;;;1.02;;
59926;SDS011;45784;55.156;73.270;2022-07-18T13:10:48;6.55;;;1.10;;
59926;SDS011;45784;55.156;73.270;2022-07-18T13:13:16;9.05;;;0.93;;
59926;SDS011;45784;55.156;73.270;2022-07-18T13:15:43;2.97;;;1.10;;
59926;SDS011;45784;55.156;73.270;2022-07-18T13:18:10;1.45;;;0.80;;
59926;SDS011;45784;55.156;73.270;2022-07-18T13:20:37;2.30;;;1.08;;
59926;SDS011;45784;55.156;73.270;2022-07-18T13:23:04;7.85;;;1.10;;
59926;SDS011;45784;55.156;73.270;2022-07-18T13:25:30;10.50;;;1.20;;
59926;SDS011;45784;55.156;73.270;2022-07-18T13:28:00;5.72;;;1.05;;
59926;SDS011;45784;55.156;73.270;2022-07-18T13:30:27;5.32;;;1.00;;
59926;SDS011;45784;55.156;73.270;2022-07-18T13:32:54;7.18;;;1.30;;
59926;SDS011;45784;55.156;73.270;2022-07-18T13:35:21;7.10;;;1.63;;
59926;SDS011;45784;55.156;73.270;2022-07-18T13:37:48;13.50;;;8.98;;
59926;SDS011;45784;55.156;73.270;2022-07-18T13:40:15;46.47;;;35.58;;
59926;SDS011;45784;55.156;73.270;2022-07-18T13:42:42;81.30;;;61.78;;
59926;SDS011;45784;55.156;73.270;2022-07-18T13:45:09;30.52;;;22.80;;
59926;SDS011;45784;55.156;73.270;2022-07-18T13:47:38;15.60;;;11.20;;
59926;SDS011;45784;55.156;73.270;2022-07-18T13:50:08;12.60;;;8.07;;
59926;SDS011;45784;55.156;73.270;2022-07-18T13:52:35;11.48;;;7.55;;
59926;SDS011;45784;55.156;73.270;2022-07-18T13:55:02;16.45;;;7.80;;
59926;SDS011;45784;55.156;73.270;2022-07-18T13:57:30;7.28;;;2.67;;
59926;SDS011;45784;55.156;73.270;2022-07-18T13:59:56;7.03;;;2.67;;
59926;SDS011;45784;55.156;73.270;2022-07-18T14:02:23;5.40;;;2.08;;
59926;SDS011;45784;55.156;73.270;2022-07-18T14:04:50;3.20;;;1.55;;
59926;SDS011;45784;55.156;73.270;2022-07-18T14:07:17;4.68;;;1.20;;
59926;SDS011;45784;55.156;73.270;2022-07-18T14:09:44;3.45;;;1.50;;
59926;SDS011;45784;55.156;73.270;2022-07-18T14:12:11;4.65;;;1.20;;
59926;SDS011;45784;55.156;73.270;2022-07-18T14:14:38;4.57;;;1.30;;
59926;SDS011;45784;55.156;73.270;2022-07-18T14:17:05;8.02;;;1.42;;
59926;SDS011;45784;55.156;73.270;2022-07-18T14:19:32;5.80;;;1.40;;
59926;SDS011;45784;55.156;73.270;2022-07-18T14:22:03;7.50;;;1.40;;
59926;SDS011;45784;55.156;73.270;2022-07-18T14:24:30;15.38;;;2.03;;
59926;SDS011;45784;55.156;73.270;2022-07-18T14:26:57;28.13;;;14.65;;
59926;SDS011;45784;55.156;73.270;2022-07-18T14:29:23;133.63;;;21.70;;
59926;SDS011;45784;55.156;73.270;2022-07-18T14:31:50;17.77;;;7.35;;
59926;SDS011;45784;55.156;73.270;2022-07-18T14:34:17;11.07;;;4.85;;
59926;SDS011;45784;55.156;73.270;2022-07-18T14:36:44;9.05;;;2.95;;
59926;SDS011;45784;55.156;73.270;2022-07-18T14:39:10;4.25;;;2.08;;
59926;SDS011;45784;55.156;73.270;2022-07-18T14:41:37;6.57;;;2.42;;
59926;SDS011;45784;55.156;73.270;2022-07-18T14:44:04;10.00;;;2.17;;
59926;SDS011;45784;55.156;73.270;2022-07-18T14:46:31;6.25;;;2.00;;
59926;SDS011;45784;55.156;73.270;2022-07-18T14:48:57;11.63;;;2.25;;
59926;SDS011;45784;55.156;73.270;2022-07-18T14:51:24;15.20;;;2.28;;
59926;SDS011;45784;55.156;73.270;2022-07-18T14:53:51;15.43;;;2.13;;
59926;SDS011;45784;55.156;73.270;2022-07-18T14:56:18;9.27;;;2.22;;
59926;SDS011;45784;55.156;73.270;2022-07-18T14:58:45;7.75;;;2.53;;
59926;SDS011;45784;55.156;73.270;2022-07-18T15:01:11;11.68;;;2.50;;
59926;SDS011;45784;55.156;73.270;2022-07-18T15:03:38;11.60;;;2.63;;
59926;SDS011;45784;55.156;73.270;2022-07-18T15:06:05;12.60;;;2.65;;
59926;SDS011;45784;55.156;73.270;2022-07-18T15:08:32;32.10;;;2.92;;
59926;SDS011;45784;55.156;73.270;2022-07-18T15:10:59;29.02;;;3.10;;
59926;SDS011;45784;55.156;73.270;2022-07-18T15:13:25;38.40;;;3.40;;
59926;SDS011;45784;55.156;73.270;2022-07-18T15:15:52;23.52;;;2.10;;
59926;SDS011;45784;55.156;73.270;2022-07-18T15:18:19;7.22;;;1.90;;
59926;SDS011;45784;55.156;73.270;2022-07-18T15:20:47;11.07;;;2.05;;
59926;SDS011;45784;55.156;73.270;2022-07-18T15:23:13;22.85;;;2.50;;
59926;SDS011;45784;55.156;73.270;2022-07-18T15:25:40;18.48;;;2.30;;
59926;SDS011;45784;55.156;73.270;2022-07-18T15:28:07;37.55;;;3.65;;
59926;SDS011;45784;55.156;73.270;2022-07-18T15:30:34;14.60;;;2.63;;
59926;SDS011;45784;55.156;73.270;2022-07-18T15:33:01;21.90;;;2.70;;
59926;SDS011;45784;55.156;73.270;2022-07-18T15:35:27;19.88;;;3.58;;
59926;SDS011;45784;55.156;73.270;2022-07-18T15:37:54;14.82;;;2.80;;
59926;SDS011;45784;55.156;73.270;2022-07-18T15:40:21;8.50;;;2.85;;
59926;SDS011;45784;55.156;73.270;2022-07-18T15:42:49;14.13;;;2.67;;
59926;SDS011;45784;55.156;73.270;2022-07-18T15:45:16;15.30;;;2.88;;